Sao Jose do Campestre, Brazil
Current Conditions -  °F | °C
As of 12:00 PM on Friday 31 Oct 2014 (Local Time) from SBNT Reporting Station
Scattered Clouds Scattered Clouds  
Wind Chill: 86°   Ceiling: Unl
Heat Index: 87°   Visibility: 6mi
Dew Point: 63°   Wind: 17mph
Humidity: 45%   Direction: 110°ESE
Pressure: 29.94"   Gusts: NA
Location:  6.32°S, 35.71°W
Report Text: SBNT 311500Z 11015KT 9999 SCT030 30/17 Q1014
Loading
Personal Weather Stations






























Interactive Weather Map
Tropical Storm Tracking
New forecast layout! Learn more

10-Day Weather Forecast

Advertisements
Track Severe Weather on mobile